Time;durP1;ratioP1;P1;durP2;ratioP2;P2;SDS_P1;SDS_P2;PMS_P1;PMS_P2;Temp;Humidity;BMP_temperature;BMP_pressure;BME280_temperature;BME280_humidity;BME280_pressure;Samples;Min_cycle;Max_cycle;Signal;HPM_P1;HPM_P2
2024/02/05 00:01:35;;;;;;;3.63;1.80;;;8.20;99.90;;;;;;5041556;28;20049;-45
2024/02/05 00:04:02;;;;;;;2.90;1.55;;;8.20;99.90;;;;;;5034019;28;20053;-52
2024/02/05 00:06:30;;;;;;;3.08;1.80;;;8.10;99.90;;;;;;5042611;28;20056;-47
2024/02/05 00:08:58;;;;;;;3.08;1.80;;;8.10;99.90;;;;;;5033876;28;20156;-47
2024/02/05 00:11:25;;;;;;;2.80;1.70;;;8.10;99.90;;;;;;5039565;28;20049;-52
2024/02/05 00:13:51;;;;;;;3.30;1.75;;;8.10;99.90;;;;;;5040951;28;20051;-47
2024/02/05 00:16:18;;;;;;;2.53;1.65;;;8.10;99.90;;;;;;5043335;28;20049;-43
2024/02/05 00:18:46;;;;;;;2.53;1.60;;;8.10;99.90;;;;;;5040313;28;20045;-49
2024/02/05 00:21:13;;;;;;;3.60;1.90;;;8.10;99.90;;;;;;5045872;28;20137;-50
2024/02/05 00:23:40;;;;;;;3.22;1.70;;;8.10;99.90;;;;;;5035317;28;20066;-46
2024/02/05 00:26:08;;;;;;;2.67;1.60;;;8.10;99.90;;;;;;5033236;28;20140;-54
2024/02/05 00:28:35;;;;;;;2.72;1.60;;;8.10;99.90;;;;;;5034120;28;20045;-51
2024/02/05 00:31:02;;;;;;;2.75;1.50;;;8.00;99.90;;;;;;5032805;28;20123;-48
2024/02/05 00:33:29;;;;;;;2.35;1.58;;;8.00;99.90;;;;;;5018859;28;20313;-49
2024/02/05 00:35:56;;;;;;;3.70;1.83;;;8.00;99.90;;;;;;5035856;28;20099;-49
2024/02/05 00:38:23;;;;;;;2.10;1.55;;;8.00;99.90;;;;;;5040805;28;20466;-48
2024/02/05 00:40:51;;;;;;;4.60;1.45;;;8.10;99.90;;;;;;5037851;28;20087;-51
2024/02/05 00:43:18;;;;;;;2.65;1.63;;;8.10;99.90;;;;;;5033877;28;20101;-50
2024/02/05 00:45:45;;;;;;;2.47;1.65;;;8.10;99.90;;;;;;5040952;28;20060;-50
2024/02/05 00:48:12;;;;;;;2.40;1.60;;;8.10;99.90;;;;;;5044384;28;20044;-48
2024/02/05 00:50:41;;;;;;;2.88;1.75;;;8.10;99.90;;;;;;5047114;28;20055;-45
2024/02/05 00:53:08;;;;;;;2.88;1.60;;;8.10;99.90;;;;;;5034737;28;20128;-50
2024/02/05 00:55:35;;;;;;;2.65;1.60;;;8.00;99.90;;;;;;5035354;28;20514;-49
2024/02/05 00:58:03;;;;;;;3.90;2.15;;;8.00;99.90;;;;;;5039031;28;20044;-50
2024/02/05 01:00:30;;;;;;;2.75;1.70;;;8.00;99.90;;;;;;5045447;28;20033;-47
2024/02/05 01:02:57;;;;;;;2.83;1.60;;;8.10;99.90;;;;;;5042624;28;20044;-46
2024/02/05 01:05:24;;;;;;;2.13;1.48;;;8.10;99.90;;;;;;5041943;28;20052;-49
2024/02/05 01:07:51;;;;;;;2.75;1.70;;;8.10;99.90;;;;;;5038339;28;20044;-48
2024/02/05 01:10:19;;;;;;;3.15;1.80;;;8.10;99.90;;;;;;5034725;28;20042;-48
2024/02/05 01:12:46;;;;;;;3.45;1.80;;;8.10;99.90;;;;;;5038705;28;20077;-48
2024/02/05 01:15:13;;;;;;;3.00;1.60;;;8.10;99.90;;;;;;5037468;28;20046;-49
2024/02/05 01:17:40;;;;;;;3.65;1.50;;;8.10;99.90;;;;;;5041045;28;20089;-45
2024/02/05 01:20:10;;;;;;;2.60;1.50;;;8.10;99.90;;;;;;5036365;28;20053;-49
2024/02/05 01:22:39;;;;;;;2.67;1.65;;;8.10;99.90;;;;;;5046010;28;20052;-51
2024/02/05 01:25:06;;;;;;;3.00;1.70;;;8.10;99.90;;;;;;5043925;28;20049;-48
2024/02/05 01:27:33;;;;;;;4.10;1.60;;;8.10;99.90;;;;;;5045592;28;20488;-54
2024/02/05 01:30:00;;;;;;;2.47;1.60;;;8.10;99.90;;;;;;5046652;28;20132;-50
2024/02/05 01:32:27;;;;;;;2.30;1.50;;;8.10;99.90;;;;;;5041711;28;20052;-47
2024/02/05 01:34:54;;;;;;;2.40;1.73;;;8.10;99.90;;;;;;5041537;28;20033;-46
2024/02/05 01:37:25;;;;;;;1.65;1.30;;;8.20;99.90;;;;;;5047231;28;20103;-49
2024/02/05 01:39:52;;;;;;;2.92;1.38;;;8.10;99.90;;;;;;5046421;28;20234;-51
2024/02/05 01:42:19;;;;;;;2.35;1.50;;;8.10;99.90;;;;;;5043410;28;20052;-49
2024/02/05 01:44:46;;;;;;;2.53;1.27;;;8.10;99.90;;;;;;5045795;28;20128;-47
2024/02/05 01:47:14;;;;;;;2.17;1.20;;;8.20;99.90;;;;;;5046277;28;20505;-51
2024/02/05 01:49:42;;;;;;;2.13;1.40;;;8.20;99.90;;;;;;5045900;28;20045;-50
2024/02/05 01:52:14;;;;;;;1.98;1.30;;;8.10;99.90;;;;;;5046973;28;20037;-48
2024/02/05 01:54:42;;;;;;;2.53;1.50;;;8.10;99.90;;;;;;5042709;28;20041;-48
2024/02/05 01:57:10;;;;;;;1.95;1.27;;;8.10;99.90;;;;;;5047230;28;20056;-46
2024/02/05 01:59:38;;;;;;;2.33;1.20;;;8.20;99.90;;;;;;5046462;28;20044;-47
2024/02/05 02:02:06;;;;;;;2.75;1.10;;;8.20;99.90;;;;;;5046720;28;20104;-49
2024/02/05 02:04:36;;;;;;;2.03;1.23;;;8.20;99.90;;;;;;5046265;28;20475;-51
2024/02/05 02:07:04;;;;;;;3.05;1.25;;;8.20;99.90;;;;;;5047723;28;20041;-52
2024/02/05 02:09:32;;;;;;;2.30;1.40;;;8.20;99.90;;;;;;5050015;28;20045;-46
2024/02/05 02:12:00;;;;;;;2.10;1.30;;;8.20;99.90;;;;;;5048244;28;20178;-50
2024/02/05 02:14:27;;;;;;;1.95;1.10;;;8.20;99.90;;;;;;5048876;28;20045;-47
2024/02/05 02:16:54;;;;;;;2.03;1.30;;;8.20;99.90;;;;;;5046118;28;20036;-51
2024/02/05 02:19:48;;;;;;;2.72;1.30;;;8.30;99.90;;;;;;5046014;28;20061;-49
2024/02/05 02:22:32;;;;;;;2.33;1.30;;;8.20;99.90;;;;;;5046369;28;20041;-56
2024/02/05 02:25:00;;;;;;;1.48;1.13;;;8.20;99.90;;;;;;5046429;28;20055;-52
2024/02/05 02:27:27;;;;;;;2.10;1.40;;;8.20;99.90;;;;;;5048911;28;20047;-51
2024/02/05 02:29:54;;;;;;;1.42;1.10;;;8.20;99.90;;;;;;5045655;28;20132;-54
2024/02/05 02:32:46;;;;;;;2.38;1.38;;;8.20;99.90;;;;;;5041395;28;20096;-48
2024/02/05 02:35:23;;;;;;;1.42;1.10;;;8.20;99.90;;;;;;5047236;28;20065;-51
2024/02/05 02:37:59;;;;;;;2.10;1.30;;;8.20;99.90;;;;;;5045804;28;20565;-48
2024/02/05 02:40:29;;;;;;;1.52;1.10;;;8.20;99.90;;;;;;5046104;28;20080;-46
2024/02/05 02:43:00;;;;;;;1.50;1.10;;;8.10;99.90;;;;;;5045747;28;20076;-51
2024/02/05 02:45:28;;;;;;;1.55;1.10;;;8.10;99.90;;;;;;5050016;28;20072;-51
2024/02/05 02:47:55;;;;;;;1.48;1.10;;;8.10;99.90;;;;;;5049033;28;20135;-50
2024/02/05 02:50:22;;;;;;;1.52;1.10;;;8.10;99.90;;;;;;5050103;28;20041;-47
2024/02/05 02:52:49;;;;;;;2.50;1.30;;;8.10;99.90;;;;;;5049174;28;20552;-47
2024/02/05 02:55:16;;;;;;;1.73;1.20;;;8.10;99.90;;;;;;5040842;28;20065;-45
2024/02/05 02:57:44;;;;;;;1.83;1.30;;;8.10;99.90;;;;;;5046359;28;20527;-55
2024/02/05 03:00:12;;;;;;;1.92;1.30;;;8.10;99.90;;;;;;5046105;28;20037;-51
2024/02/05 03:02:39;;;;;;;1.67;1.10;;;8.00;99.90;;;;;;5047927;28;20308;-48
2024/02/05 03:05:07;;;;;;;2.03;1.30;;;8.00;99.90;;;;;;5050737;28;20477;-52
2024/02/05 03:07:34;;;;;;;3.05;2.00;;;8.00;99.90;;;;;;5046678;28;20049;-51
2024/02/05 03:10:05;;;;;;;1.80;1.05;;;8.00;99.90;;;;;;5049407;28;20037;-51
2024/02/05 03:12:34;;;;;;;1.52;1.10;;;8.00;99.90;;;;;;5048676;28;20462;-47
2024/02/05 03:15:01;;;;;;;1.70;1.20;;;8.00;99.90;;;;;;5039607;28;20136;-51
2024/02/05 03:17:29;;;;;;;1.63;1.20;;;8.00;99.90;;;;;;5048500;28;20116;-43
2024/02/05 03:19:56;;;;;;;1.80;1.15;;;8.00;99.90;;;;;;5047506;28;20049;-51
2024/02/05 03:22:23;;;;;;;2.03;1.27;;;7.90;99.90;;;;;;5039752;28;20100;-46
2024/02/05 03:24:50;;;;;;;2.20;1.30;;;8.00;99.90;;;;;;5036943;28;20045;-52
2024/02/05 03:27:17;;;;;;;2.08;1.35;;;7.90;99.90;;;;;;5039227;28;20390;-49
2024/02/05 03:29:44;;;;;;;2.05;1.20;;;7.90;99.90;;;;;;5042951;28;20247;-50
2024/02/05 03:32:11;;;;;;;2.88;1.17;;;8.00;99.90;;;;;;5039028;28;20464;-50
2024/02/05 03:34:38;;;;;;;1.90;1.10;;;8.00;99.90;;;;;;5036336;28;20143;-47
2024/02/05 03:37:05;;;;;;;2.30;1.30;;;8.00;99.90;;;;;;5034044;28;20048;-46
2024/02/05 03:39:32;;;;;;;2.20;1.25;;;8.00;99.90;;;;;;5040496;28;20046;-47
2024/02/05 03:41:59;;;;;;;2.13;1.27;;;8.00;99.90;;;;;;5034621;28;20056;-51
2024/02/05 03:44:26;;;;;;;1.80;1.20;;;8.00;99.90;;;;;;5033404;28;20112;-44
2024/02/05 03:46:53;;;;;;;3.05;1.30;;;8.00;99.90;;;;;;5039454;28;20120;-52
2024/02/05 03:49:20;;;;;;;2.28;1.20;;;8.00;99.90;;;;;;5039269;28;20227;-51
2024/02/05 03:51:47;;;;;;;2.90;1.20;;;8.10;99.90;;;;;;5040226;28;20048;-48
2024/02/05 03:54:14;;;;;;;2.50;1.27;;;8.00;99.90;;;;;;5029747;28;20049;-49
2024/02/05 03:56:42;;;;;;;3.03;1.58;;;8.10;99.90;;;;;;5040722;28;20092;-48
2024/02/05 03:59:12;;;;;;;2.93;1.40;;;8.00;99.90;;;;;;5040490;28;20400;-45
2024/02/05 04:01:41;;;;;;;1.98;1.20;;;8.00;99.90;;;;;;5035708;28;20041;-52
2024/02/05 04:04:10;;;;;;;3.55;1.40;;;8.10;99.90;;;;;;5048912;28;20047;-51
2024/02/05 04:06:38;;;;;;;1.95;1.30;;;8.10;99.90;;;;;;5035433;28;20156;-49
2024/02/05 04:09:07;;;;;;;3.13;1.35;;;8.10;99.90;;;;;;5028174;28;20049;-46
2024/02/05 04:11:37;;;;;;;2.70;1.42;;;8.10;99.90;;;;;;5035503;28;20053;-55
2024/02/05 04:14:04;;;;;;;3.83;1.40;;;8.10;99.90;;;;;;5038218;28;20034;-46
2024/02/05 04:16:31;;;;;;;2.13;1.27;;;8.10;99.90;;;;;;5039244;28;20061;-46
2024/02/05 04:18:59;;;;;;;3.35;1.40;;;8.10;99.90;;;;;;5039099;28;20049;-48
2024/02/05 04:21:26;;;;;;;2.95;1.35;;;8.20;99.90;;;;;;5036211;28;20045;-48
2024/02/05 04:23:53;;;;;;;2.58;1.38;;;8.10;99.90;;;;;;5045301;28;20118;-50
2024/02/05 04:26:20;;;;;;;1.95;1.30;;;8.10;99.90;;;;;;5035991;28;20366;-48
2024/02/05 04:28:48;;;;;;;2.13;1.30;;;8.10;99.90;;;;;;5036793;28;20072;-48
2024/02/05 04:31:16;;;;;;;2.00;1.30;;;8.10;99.90;;;;;;5045196;28;20033;-47
2024/02/05 04:33:43;;;;;;;3.35;1.70;;;8.20;99.90;;;;;;5038786;28;20076;-49
2024/02/05 04:36:15;;;;;;;2.17;1.33;;;8.20;99.90;;;;;;5032934;28;20045;-54
2024/02/05 04:38:43;;;;;;;2.08;1.30;;;8.20;99.90;;;;;;5034899;28;20045;-51
2024/02/05 04:41:12;;;;;;;2.83;1.40;;;8.10;99.90;;;;;;5032792;28;20073;-53
2024/02/05 04:43:40;;;;;;;2.22;1.30;;;8.20;99.90;;;;;;5040896;28;20270;-48
2024/02/05 04:46:10;;;;;;;3.15;1.65;;;8.20;99.90;;;;;;5034140;28;20053;-55
2024/02/05 04:48:38;;;;;;;2.97;1.88;;;8.10;99.90;;;;;;5036029;28;20063;-51
2024/02/05 04:51:11;;;;;;;2.70;1.50;;;8.10;99.90;;;;;;5038076;28;20037;-51
2024/02/05 04:53:40;;;;;;;5.30;2.10;;;8.20;99.90;;;;;;5033270;28;20092;-52
2024/02/05 04:56:07;;;;;;;2.92;1.80;;;8.20;99.90;;;;;;5035437;28;20044;-52
2024/02/05 04:58:35;;;;;;;1.98;1.25;;;8.10;99.90;;;;;;5037773;28;20068;-45
2024/02/05 05:01:02;;;;;;;2.55;1.40;;;8.10;99.90;;;;;;5034012;28;20053;-49
2024/02/05 05:03:29;;;;;;;4.40;1.60;;;8.00;99.90;;;;;;5036245;28;20128;-51
2024/02/05 05:05:56;;;;;;;2.47;1.60;;;8.10;99.90;;;;;;5037121;28;20429;-48
2024/02/05 05:08:23;;;;;;;3.38;1.70;;;8.10;99.90;;;;;;5038151;28;20131;-54
2024/02/05 05:10:50;;;;;;;3.33;1.73;;;8.10;99.90;;;;;;5015390;28;20073;-49
2024/02/05 05:13:17;;;;;;;2.88;1.70;;;8.10;99.90;;;;;;5035703;28;20037;-51
2024/02/05 05:15:44;;;;;;;4.93;1.75;;;8.10;99.90;;;;;;5034555;28;20101;-49
2024/02/05 05:18:11;;;;;;;3.97;1.88;;;8.10;99.90;;;;;;5035813;28;20044;-48
2024/02/05 05:20:39;;;;;;;2.85;1.83;;;8.10;99.90;;;;;;5039111;28;20037;-47
2024/02/05 05:23:06;;;;;;;3.90;1.70;;;8.10;99.90;;;;;;5030658;28;20073;-49
2024/02/05 05:25:33;;;;;;;4.72;2.03;;;8.10;99.90;;;;;;5034891;28;20048;-55
2024/02/05 05:28:00;;;;;;;4.97;2.00;;;8.10;99.90;;;;;;5043592;28;20136;-48
2024/02/05 05:30:27;;;;;;;4.25;2.13;;;8.10;99.90;;;;;;5034232;28;20042;-53
2024/02/05 05:32:53;;;;;;;3.42;1.80;;;8.10;99.90;;;;;;5040911;28;20498;-48
2024/02/05 05:35:21;;;;;;;4.93;1.83;;;8.10;99.90;;;;;;5035637;28;20562;-50
2024/02/05 05:37:47;;;;;;;6.97;2.15;;;8.10;99.90;;;;;;5027051;28;20140;-52
2024/02/05 05:40:14;;;;;;;4.88;1.90;;;8.10;99.90;;;;;;5047058;28;20064;-52
2024/02/05 05:42:41;;;;;;;4.53;1.80;;;8.10;99.90;;;;;;5040217;28;20120;-50
2024/02/05 05:45:09;;;;;;;2.90;1.77;;;8.10;99.90;;;;;;5045076;28;20064;-50
2024/02/05 05:47:37;;;;;;;4.38;2.10;;;8.00;99.90;;;;;;5022700;28;20049;-46
2024/02/05 05:50:04;;;;;;;4.80;2.40;;;8.10;99.90;;;;;;5035058;28;20243;-48
2024/02/05 05:52:32;;;;;;;4.30;1.88;;;8.20;99.90;;;;;;5037209;28;20049;-49
2024/02/05 05:54:59;;;;;;;3.85;2.00;;;8.10;99.90;;;;;;5033416;28;20117;-54
2024/02/05 05:57:27;;;;;;;4.07;2.10;;;8.10;99.90;;;;;;5042806;28;20537;-51
2024/02/05 05:59:54;;;;;;;5.55;2.05;;;8.10;99.90;;;;;;5044627;28;20124;-49
2024/02/05 06:02:22;;;;;;;4.00;2.13;;;8.10;99.90;;;;;;5044237;28;20135;-55
2024/02/05 06:04:49;;;;;;;4.10;2.28;;;8.10;99.90;;;;;;5046931;28;20099;-54
2024/02/05 06:07:16;;;;;;;3.80;2.13;;;8.10;99.90;;;;;;5044643;28;20387;-48
2024/02/05 06:09:43;;;;;;;5.93;1.90;;;8.10;99.90;;;;;;5048023;28;20051;-49
2024/02/05 06:12:10;;;;;;;5.75;1.95;;;8.20;99.90;;;;;;5042010;28;20140;-50
2024/02/05 06:14:37;;;;;;;5.68;2.40;;;8.20;99.90;;;;;;5047304;28;20635;-46
2024/02/05 06:17:04;;;;;;;6.45;2.22;;;8.10;99.90;;;;;;5046681;28;20053;-49
2024/02/05 06:19:31;;;;;;;3.92;2.10;;;8.20;99.90;;;;;;5052458;28;20049;-47
2024/02/05 06:21:58;;;;;;;3.97;1.92;;;8.10;99.90;;;;;;5049888;28;20076;-49
2024/02/05 06:24:25;;;;;;;5.35;2.28;;;8.10;99.90;;;;;;5045345;28;20049;-46
2024/02/05 06:26:52;;;;;;;4.30;1.80;;;8.10;99.90;;;;;;5047245;28;20495;-51
2024/02/05 06:29:19;;;;;;;7.35;2.22;;;8.10;99.90;;;;;;5053064;28;20121;-47
2024/02/05 06:31:46;;;;;;;4.35;2.03;;;8.10;99.90;;;;;;5049744;28;20044;-50
2024/02/05 06:34:13;;;;;;;3.78;1.92;;;8.10;99.90;;;;;;5052515;28;20082;-50
2024/02/05 06:36:40;;;;;;;6.53;2.20;;;8.10;99.90;;;;;;5051869;28;20501;-52
2024/02/05 06:39:10;;;;;;;7.57;2.40;;;8.10;99.90;;;;;;5046539;28;20489;-48
2024/02/05 06:41:38;;;;;;;5.60;2.10;;;8.20;99.90;;;;;;5045676;28;20445;-47
2024/02/05 06:44:07;;;;;;;3.70;2.22;;;8.10;99.90;;;;;;5048847;28;20053;-46
2024/02/05 06:46:34;;;;;;;4.47;2.00;;;8.20;99.90;;;;;;5045836;28;20051;-51
2024/02/05 06:49:01;;;;;;;4.60;1.77;;;8.20;99.90;;;;;;5048480;28;20053;-46
2024/02/05 06:51:28;;;;;;;5.82;1.85;;;8.10;99.90;;;;;;5050608;28;20474;-52
2024/02/05 06:53:55;;;;;;;6.03;2.22;;;8.20;99.90;;;;;;5050816;28;20099;-49
2024/02/05 06:56:22;;;;;;;8.25;2.10;;;8.20;99.90;;;;;;5052398;28;20059;-45
2024/02/05 06:58:49;;;;;;;4.13;2.00;;;8.10;99.90;;;;;;5046590;28;20071;-50
2024/02/05 07:01:16;;;;;;;5.47;2.00;;;8.20;99.90;;;;;;5046720;28;20041;-48
2024/02/05 07:03:43;;;;;;;4.70;2.08;;;8.20;99.90;;;;;;5049844;28;20095;-50
2024/02/05 07:06:10;;;;;;;6.28;1.95;;;8.20;99.90;;;;;;5048032;28;20413;-45
2024/02/05 07:08:37;;;;;;;3.53;1.88;;;8.20;99.90;;;;;;5050503;28;20045;-50
2024/02/05 07:11:04;;;;;;;4.68;2.40;;;8.20;99.90;;;;;;5051155;28;20462;-49
2024/02/05 07:13:32;;;;;;;4.50;2.25;;;8.20;99.90;;;;;;5051155;28;20037;-50
2024/02/05 07:16:00;;;;;;;5.32;1.90;;;8.20;99.90;;;;;;5049020;28;20053;-47
2024/02/05 07:18:27;;;;;;;7.45;1.95;;;8.30;99.90;;;;;;5046666;28;20033;-45
2024/02/05 07:20:54;;;;;;;4.78;2.10;;;8.20;99.90;;;;;;5047827;28;20037;-46
2024/02/05 07:23:21;;;;;;;4.68;2.15;;;8.30;99.90;;;;;;5049075;28;20077;-53
2024/02/05 07:25:48;;;;;;;6.78;2.10;;;8.30;99.90;;;;;;5048118;28;20148;-53
2024/02/05 07:28:15;;;;;;;5.68;2.28;;;8.20;99.90;;;;;;5042684;28;20069;-50
2024/02/05 07:30:41;;;;;;;8.13;2.53;;;8.20;99.90;;;;;;5047406;28;20076;-49
2024/02/05 07:33:08;;;;;;;5.07;1.98;;;8.20;99.90;;;;;;5047556;28;20052;-45
2024/02/05 07:35:36;;;;;;;5.32;2.00;;;8.30;99.90;;;;;;5043095;28;20064;-48
2024/02/05 07:38:03;;;;;;;3.97;1.73;;;8.30;99.90;;;;;;5043267;28;20206;-44
2024/02/05 07:40:30;;;;;;;4.65;1.92;;;8.30;99.90;;;;;;5043826;28;20122;-49
2024/02/05 07:42:57;;;;;;;4.32;2.03;;;8.30;99.90;;;;;;5046702;28;20109;-46
2024/02/05 07:45:25;;;;;;;6.03;1.88;;;8.30;99.90;;;;;;5048949;28;20041;-49
2024/02/05 07:47:53;;;;;;;4.68;2.13;;;8.30;99.90;;;;;;5045181;28;20072;-44
2024/02/05 07:50:20;;;;;;;4.82;1.98;;;8.30;99.90;;;;;;5046925;28;20543;-50
2024/02/05 07:52:47;;;;;;;4.47;1.88;;;8.40;99.90;;;;;;5036492;28;20128;-44
2024/02/05 07:55:14;;;;;;;4.47;1.95;;;8.40;99.90;;;;;;5046869;28;20048;-49
2024/02/05 07:57:42;;;;;;;5.80;2.13;;;8.30;99.90;;;;;;5048166;28;20447;-48
2024/02/05 08:00:09;;;;;;;4.95;1.80;;;8.40;99.90;;;;;;5048383;28;20041;-51
2024/02/05 08:02:39;;;;;;;7.63;2.00;;;8.50;99.90;;;;;;5046047;28;20419;-50
2024/02/05 08:05:06;;;;;;;7.13;2.25;;;8.50;99.90;;;;;;5046850;28;20068;-48
2024/02/05 08:07:33;;;;;;;4.35;1.80;;;8.50;99.90;;;;;;5049078;28;20049;-48
2024/02/05 08:10:00;;;;;;;6.22;2.45;;;8.50;99.90;;;;;;5042075;28;20095;-48
2024/02/05 08:12:27;;;;;;;8.90;2.10;;;8.50;99.90;;;;;;5046799;28;20051;-47
2024/02/05 08:14:54;;;;;;;5.40;1.90;;;8.50;99.90;;;;;;5043411;28;20483;-51
2024/02/05 08:17:21;;;;;;;8.43;2.20;;;8.50;99.90;;;;;;5028962;28;20579;-49
2024/02/05 08:19:48;;;;;;;3.97;1.90;;;8.50;99.90;;;;;;5045005;28;20037;-49
2024/02/05 08:22:15;;;;;;;6.85;2.10;;;8.60;99.90;;;;;;5047952;28;20037;-52
2024/02/05 08:24:43;;;;;;;8.85;2.22;;;8.60;99.90;;;;;;5048447;28;20041;-51
2024/02/05 08:27:09;;;;;;;5.80;2.20;;;8.60;99.90;;;;;;5043847;28;20045;-49
2024/02/05 08:29:36;;;;;;;4.95;2.10;;;8.60;99.90;;;;;;5038939;28;20041;-48
2024/02/05 08:32:04;;;;;;;7.78;2.25;;;8.60;99.90;;;;;;5039931;28;20049;-46
2024/02/05 08:34:31;;;;;;;7.22;2.58;;;8.70;99.90;;;;;;5041656;28;20536;-49
2024/02/05 08:36:58;;;;;;;8.25;2.40;;;8.70;99.90;;;;;;5037578;28;20497;-46
2024/02/05 08:39:25;;;;;;;8.68;2.50;;;8.70;99.90;;;;;;5045161;28;20117;-46
2024/02/05 08:41:52;;;;;;;6.75;2.55;;;8.70;99.90;;;;;;5039296;28;20125;-52
2024/02/05 08:44:19;;;;;;;8.65;2.33;;;8.70;99.90;;;;;;5039263;28;20039;-49
2024/02/05 08:46:46;;;;;;;5.75;2.20;;;8.70;99.90;;;;;;5040541;28;20045;-48
2024/02/05 08:49:13;;;;;;;7.97;2.60;;;8.80;99.90;;;;;;5032684;28;20042;-49
2024/02/05 08:51:40;;;;;;;7.40;3.08;;;8.80;99.90;;;;;;5040800;28;20557;-44
2024/02/05 08:54:07;;;;;;;5.57;2.58;;;8.90;99.90;;;;;;5037896;28;20486;-48
2024/02/05 08:56:34;;;;;;;4.85;2.22;;;8.90;99.90;;;;;;5047298;28;20096;-51
2024/02/05 08:59:02;;;;;;;4.95;2.33;;;9.10;99.90;;;;;;5038800;28;20493;-53
2024/02/05 09:01:29;;;;;;;9.90;2.35;;;9.10;99.90;;;;;;5039307;28;20049;-51
2024/02/05 09:03:57;;;;;;;7.10;2.13;;;9.10;99.90;;;;;;5036232;28;20045;-54
2024/02/05 09:06:24;;;;;;;9.20;2.55;;;9.20;99.90;;;;;;5038887;28;20061;-47
2024/02/05 09:08:51;;;;;;;5.85;3.08;;;9.10;99.90;;;;;;5035277;28;20421;-49
2024/02/05 09:11:18;;;;;;;6.20;2.40;;;9.20;99.90;;;;;;5038724;28;20055;-47
2024/02/05 09:13:45;;;;;;;7.65;2.95;;;9.10;99.90;;;;;;5039362;28;20589;-48
2024/02/05 09:16:12;;;;;;;5.32;2.33;;;9.10;99.90;;;;;;5041395;28;20113;-54
2024/02/05 09:18:39;;;;;;;8.73;3.13;;;9.10;99.90;;;;;;5060366;28;20041;-50
2024/02/05 09:21:06;;;;;;;5.03;2.50;;;9.20;99.90;;;;;;5037926;28;20085;-51
2024/02/05 09:23:34;;;;;;;6.07;2.40;;;9.20;99.90;;;;;;5034100;28;20044;-52
2024/02/05 09:26:01;;;;;;;6.75;2.53;;;9.30;99.90;;;;;;5032050;28;20052;-56
2024/02/05 09:28:28;;;;;;;4.28;2.50;;;9.30;99.90;;;;;;5040697;28;20049;-46
2024/02/05 09:30:55;;;;;;;8.25;2.70;;;9.30;99.90;;;;;;5039250;28;20532;-54
2024/02/05 09:33:37;;;;;;;;;;;9.30;99.90;;;;;;5038581;28;20052;-52
2024/02/05 09:36:05;;;;;;;5.93;2.63;;;9.50;99.90;;;;;;5040363;28;19929;-49
2024/02/05 09:38:32;;;;;;;6.03;3.20;;;9.50;99.90;;;;;;5042560;28;20052;-51
2024/02/05 09:41:04;;;;;;;5.22;2.45;;;9.50;99.90;;;;;;5042706;28;20490;-51
2024/02/05 09:43:32;;;;;;;;;;;9.60;99.90;;;;;;5032778;28;20150;-53
2024/02/05 09:46:06;;;;;;;9.02;2.50;;;9.70;99.90;;;;;;5032441;28;19924;-48
2024/02/05 09:48:35;;;;;;;7.72;2.78;;;9.80;99.90;;;;;;5044595;28;20033;-51
2024/02/05 09:51:12;;;;;;;7.45;2.72;;;9.70;99.90;;;;;;5034418;28;20123;-49
2024/02/05 09:53:40;;;;;;;8.65;2.58;;;9.60;99.90;;;;;;5048455;28;20581;-45
2024/02/05 09:56:09;;;;;;;7.63;2.75;;;9.70;99.90;;;;;;5040332;28;20038;-49
2024/02/05 09:58:36;;;;;;;5.97;3.10;;;9.70;99.90;;;;;;5035547;28;20482;-52
2024/02/05 10:01:03;;;;;;;10.38;3.33;;;9.90;99.90;;;;;;5036521;28;20389;-46
2024/02/05 10:03:31;;;;;;;8.68;3.20;;;9.80;99.90;;;;;;5033157;28;20072;-49
2024/02/05 10:06:03;;;;;;;9.23;2.75;;;9.70;99.90;;;;;;5039358;28;20245;-48
2024/02/05 10:08:34;;;;;;;7.72;2.70;;;9.80;99.90;;;;;;5038219;28;20045;-55
2024/02/05 10:11:03;;;;;;;6.35;2.85;;;9.80;99.90;;;;;;5035034;28;20041;-48
2024/02/05 10:13:30;;;;;;;5.80;3.05;;;9.80;99.90;;;;;;5043850;28;20044;-49
2024/02/05 10:15:57;;;;;;;11.80;2.88;;;9.90;99.90;;;;;;5040205;28;20100;-49
2024/02/05 10:18:24;;;;;;;19.60;3.38;;;9.80;99.90;;;;;;5035537;28;20042;-53
2024/02/05 10:20:51;;;;;;;7.82;3.05;;;9.90;99.90;;;;;;5026668;28;20033;-48
2024/02/05 10:23:19;;;;;;;9.35;2.80;;;10.00;99.90;;;;;;5039870;28;20048;-56
2024/02/05 10:25:47;;;;;;;8.40;3.08;;;10.10;99.90;;;;;;5034978;28;20045;-49
2024/02/05 10:28:20;;;;;;;7.53;2.92;;;10.10;99.90;;;;;;5038839;28;20116;-44
2024/02/05 10:30:47;;;;;;;8.02;3.13;;;10.20;99.90;;;;;;5038335;28;20103;-53
2024/02/05 10:33:16;;;;;;;10.18;3.50;;;10.30;99.90;;;;;;5030657;28;20046;-47
2024/02/05 10:35:44;;;;;;;9.75;2.95;;;10.30;99.90;;;;;;5033805;28;20107;-50
2024/02/05 10:38:11;;;;;;;5.93;3.10;;;10.40;99.90;;;;;;5038115;28;20060;-48
2024/02/05 10:40:38;;;;;;;12.38;3.25;;;10.40;99.90;;;;;;5037211;28;20055;-44
2024/02/05 10:43:08;;;;;;;7.93;3.20;;;10.30;99.90;;;;;;5034327;28;20289;-50
2024/02/05 10:45:39;;;;;;;7.00;2.47;;;10.50;99.90;;;;;;5039225;28;20053;-47
2024/02/05 10:48:07;;;;;;;11.15;3.20;;;10.50;99.90;;;;;;5037084;28;20044;-49
2024/02/05 10:50:35;;;;;;;10.05;3.53;;;10.60;99.90;;;;;;5033041;28;20049;-49
2024/02/05 10:53:02;;;;;;;9.57;3.28;;;10.50;99.90;;;;;;5031347;28;20116;-51
2024/02/05 10:55:31;;;;;;;7.90;3.20;;;10.70;99.90;;;;;;5032593;28;20573;-53
2024/02/05 10:58:00;;;;;;;10.90;3.35;;;10.80;99.90;;;;;;5033394;28;20045;-47
2024/02/05 11:00:27;;;;;;;9.63;3.35;;;11.10;99.90;;;;;;5042162;28;20072;-49
2024/02/05 11:03:07;;;;;;;11.55;3.35;;;11.10;99.90;;;;;;5034952;28;20561;-48
2024/02/05 11:05:35;;;;;;;9.80;3.38;;;10.90;99.90;;;;;;5039844;28;20049;-51
2024/02/05 11:08:09;;;;;;;11.57;3.08;;;10.70;99.90;;;;;;5039900;28;20056;-47
2024/02/05 11:10:45;;;;;;;10.00;3.47;;;10.70;99.90;;;;;;5041469;28;20228;-49
2024/02/05 11:13:20;;;;;;;16.33;3.10;;;10.80;99.90;;;;;;5039695;28;20140;-52
2024/02/05 11:15:49;;;;;;;9.85;3.20;;;11.10;99.90;;;;;;5041196;28;20037;-52
2024/02/05 11:18:33;;;;;;;8.45;3.10;;;11.20;99.90;;;;;;5041658;28;20498;-54
2024/02/05 11:21:03;;;;;;;8.48;3.20;;;11.30;99.90;;;;;;5044343;28;20092;-48
2024/02/05 11:23:33;;;;;;;12.43;3.55;;;11.20;99.90;;;;;;5023843;28;20275;-52
2024/02/05 11:26:00;;;;;;;9.50;3.30;;;10.90;99.90;;;;;;5038171;28;20110;-54
2024/02/05 11:28:28;;;;;;;10.18;3.50;;;10.60;99.90;;;;;;5045892;28;20052;-52
2024/02/05 11:31:06;;;;;;;9.65;3.05;;;10.40;99.90;;;;;;5043280;28;20068;-55
2024/02/05 11:33:38;;;;;;;8.10;3.33;;;10.40;99.90;;;;;;5041334;28;20041;-47
2024/02/05 11:36:12;;;;;;;8.82;2.83;;;10.40;99.90;;;;;;5036988;28;20048;-52
2024/02/05 11:38:40;;;;;;;11.93;3.53;;;10.70;99.90;;;;;;5038232;28;20072;-52
2024/02/05 11:41:07;;;;;;;9.63;4.43;;;11.00;99.90;;;;;;5039645;28;20418;-52
2024/02/05 11:43:34;;;;;;;8.98;3.00;;;11.40;99.90;;;;;;5035936;28;20034;-52
2024/02/05 11:46:02;;;;;;;9.15;4.10;;;11.60;99.90;;;;;;5035288;28;20162;-47
2024/02/05 11:48:32;;;;;;;9.73;3.70;;;11.50;99.90;;;;;;5038152;28;20064;-51
2024/02/05 11:51:00;;;;;;;8.48;3.03;;;11.50;99.90;;;;;;5034791;28;20088;-51
2024/02/05 11:53:27;;;;;;;10.48;3.55;;;11.20;99.90;;;;;;5035212;28;20041;-47
2024/02/05 11:55:54;;;;;;;9.23;3.17;;;11.00;99.90;;;;;;5022181;28;20095;-48
2024/02/05 11:58:21;;;;;;;8.50;2.97;;;11.20;99.90;;;;;;5038073;28;20041;-50
2024/02/05 12:00:48;;;;;;;12.10;4.90;;;11.30;99.90;;;;;;5040715;28;20508;-50
2024/02/05 12:03:15;;;;;;;9.68;3.17;;;11.70;99.90;;;;;;5032141;28;20038;-49
2024/02/05 12:05:44;;;;;;;8.60;2.90;;;11.90;99.90;;;;;;5038470;28;20522;-51
2024/02/05 12:08:12;;;;;;;8.70;3.00;;;12.30;99.90;;;;;;5038071;28;20100;-51
2024/02/05 12:10:39;;;;;;;10.32;3.20;;;12.80;99.90;;;;;;5036412;28;20060;-53
2024/02/05 12:13:07;;;;;;;9.15;2.92;;;13.20;99.90;;;;;;5038414;28;20079;-50
2024/02/05 12:15:37;;;;;;;8.75;3.13;;;13.30;99.90;;;;;;5036348;28;20123;-50
2024/02/05 12:18:07;;;;;;;10.45;3.13;;;13.60;99.90;;;;;;5040360;28;20048;-47
2024/02/05 12:20:34;;;;;;;10.13;3.42;;;13.90;99.90;;;;;;5047540;28;20056;-49
2024/02/05 12:23:03;;;;;;;8.73;3.55;;;13.90;99.90;;;;;;5039228;28;20044;-52
2024/02/05 12:25:30;;;;;;;7.40;3.08;;;14.30;99.90;;;;;;5043552;28;20036;-48
2024/02/05 12:28:12;;;;;;;11.27;4.18;;;14.40;99.90;;;;;;5041308;28;20045;-45
2024/02/05 12:30:39;;;;;;;9.97;3.50;;;15.00;99.90;;;;;;5037947;28;20037;-47
2024/02/05 12:33:06;;;;;;;10.77;3.78;;;15.40;99.90;;;;;;5038800;28;20057;-52
2024/02/05 12:35:33;;;;;;;13.07;4.00;;;15.40;99.90;;;;;;5039205;28;20355;-51
2024/02/05 12:38:00;;;;;;;7.03;3.63;;;15.10;99.90;;;;;;5040583;28;20135;-50
2024/02/05 12:40:27;;;;;;;8.32;3.78;;;14.60;99.90;;;;;;5035293;28;20236;-51
2024/02/05 12:43:00;;;;;;;12.10;4.28;;;14.70;99.90;;;;;;5040386;28;20040;-52
2024/02/05 12:45:28;;;;;;;9.68;3.25;;;14.60;99.90;;;;;;5035409;28;20072;-46
2024/02/05 12:47:55;;;;;;;13.70;3.47;;;15.30;99.90;;;;;;5037435;28;20656;-50
2024/02/05 12:50:23;;;;;;;13.43;4.15;;;15.70;99.90;;;;;;5043196;28;20052;-53
2024/02/05 12:52:50;;;;;;;8.82;3.40;;;15.80;99.90;;;;;;5043280;28;20082;-50
2024/02/05 12:55:17;;;;;;;11.63;3.83;;;15.90;99.90;;;;;;5035820;28;20057;-52
2024/02/05 12:57:44;;;;;;;7.95;3.42;;;16.00;99.90;;;;;;5036914;28;20131;-47
2024/02/05 13:00:12;;;;;;;10.18;3.65;;;15.90;99.90;;;;;;5039069;28;20048;-53